Estación de Coronel del Maule INIA

Ultimos registro cada 15 minutos 63
Estación Fecha / Hora Temperatura Humedad Lluvia Velocidad Dirección Radiación Presion
63 Coronel del Maule INIA 07-05-2026 15:30 12,1 60,2 0 0,7 210 95 1005
62 Coronel del Maule INIA 07-05-2026 15:15 12,2 61,5 0 1,5 214 103 1005
61 Coronel del Maule INIA 07-05-2026 15:00 12,4 56,4 0 1,2 219 135 1005
60 Coronel del Maule INIA 07-05-2026 14:45 12,2 58,2 0 2,3 197 136 1005
59 Coronel del Maule INIA 07-05-2026 14:30 12,4 62,2 0 1,5 178 122 1005
58 Coronel del Maule INIA 07-05-2026 14:15 12,4 62,6 0 1,5 170 162 1005
57 Coronel del Maule INIA 07-05-2026 14:00 12,3 59,8 0 0,8 197 202 1006
56 Coronel del Maule INIA 07-05-2026 13:45 12,1 61,1 0 2,8 206 119 1005
55 Coronel del Maule INIA 07-05-2026 13:30 12,5 56,4 0 0,5 216 199 1005
54 Coronel del Maule INIA 07-05-2026 13:15 12,2 62,8 0 1,1 209 179 1005
53 Coronel del Maule INIA 07-05-2026 13:00 12,9 61 0 1,7 232 306 1005
52 Coronel del Maule INIA 07-05-2026 12:45 13,2 59,7 0 0,3 153 399 1005
51 Coronel del Maule INIA 07-05-2026 12:30 12,2 62,9 0 1,1 190 349 1006
50 Coronel del Maule INIA 07-05-2026 12:15 11,8 67,2 0 2 206 132 1006
49 Coronel del Maule INIA 07-05-2026 12:00 12,2 64 0 0,4 201 282 1006
48 Coronel del Maule INIA 07-05-2026 11:45 11,5 67,8 0 1,2 176 126 1006
47 Coronel del Maule INIA 07-05-2026 11:30 12,5 64,7 0 1,1 157 360 1006
46 Coronel del Maule INIA 07-05-2026 11:15 11,8 61,5 0 1,9 168 309 1006
45 Coronel del Maule INIA 07-05-2026 11:00 12,2 62,5 0 1,4 208 468 1006
44 Coronel del Maule INIA 07-05-2026 10:45 11,4 69,5 0 2,2 229 398 1006
43 Coronel del Maule INIA 07-05-2026 10:30 11,2 68,5 0 0,6 225 363 1006
42 Coronel del Maule INIA 07-05-2026 10:15 10,6 69,4 0 0,1 192 341 1006
41 Coronel del Maule INIA 07-05-2026 10:00 9,5 90,5 0 0 0 308 1006
40 Coronel del Maule INIA 07-05-2026 09:45 8,3 95,3 0 0 0 246 1006
39 Coronel del Maule INIA 07-05-2026 09:30 6,7 99,9 0 0 0 158 1006
38 Coronel del Maule INIA 07-05-2026 09:15 5,9 99,9 0 0 0 97 1006
37 Coronel del Maule INIA 07-05-2026 09:00 5,6 99,9 0 0 0 87 1006
36 Coronel del Maule INIA 07-05-2026 08:45 5,2 100 0 0 0 67 1006
35 Coronel del Maule INIA 07-05-2026 08:30 4,9 100 0 0 0 138 1006
34 Coronel del Maule INIA 07-05-2026 08:15 3,3 100 0 0 0 70 1005
33 Coronel del Maule INIA 07-05-2026 08:00 3,2 98,2 0 0 0 33 1005
32 Coronel del Maule INIA 07-05-2026 07:45 3,1 100 0 0 0 8 1005
31 Coronel del Maule INIA 07-05-2026 07:30 3,1 100 0 0 0 2 1005
30 Coronel del Maule INIA 07-05-2026 07:15 4 96,8 0 0 0 1 1005
29 Coronel del Maule INIA 07-05-2026 07:00 3,8 98,8 0 0 0 0 1005
28 Coronel del Maule INIA 07-05-2026 06:45 3,6 99,1 0 0 250 0 1005
27 Coronel del Maule INIA 07-05-2026 06:30 3,6 98,2 0 0 0 0 1005
26 Coronel del Maule INIA 07-05-2026 06:15 4,2 96,3 0 0 0 0 1005
25 Coronel del Maule INIA 07-05-2026 06:00 4,2 96,6 0 0 0 1 1005
24 Coronel del Maule INIA 07-05-2026 05:45 4,1 95,5 0 0 0 1 1005
23 Coronel del Maule INIA 07-05-2026 05:30 3,7 95,9 0 0 0 1 1004
22 Coronel del Maule INIA 07-05-2026 05:15 4,4 94,5 0 0 0 1 1004
21 Coronel del Maule INIA 07-05-2026 05:00 4,6 95,5 0 0 0 1 1004
20 Coronel del Maule INIA 07-05-2026 04:45 4,6 95,4 0 0 0 1 1004
19 Coronel del Maule INIA 07-05-2026 04:30 4,7 94,8 0 0 0 1 1004
18 Coronel del Maule INIA 07-05-2026 04:15 5 94,4 0 0 0 1 1003
17 Coronel del Maule INIA 07-05-2026 04:00 5 93,9 0 0 0 1 1003
16 Coronel del Maule INIA 07-05-2026 03:45 5,4 93,2 0 0 0 1 1003
15 Coronel del Maule INIA 07-05-2026 03:30 5,9 91,6 0 0 0 1 1003
14 Coronel del Maule INIA 07-05-2026 03:15 6,3 90,6 0 0 0 1 1004
13 Coronel del Maule INIA 07-05-2026 03:00 6,8 89,2 0 0 0 0 1004
12 Coronel del Maule INIA 07-05-2026 02:45 6,8 89 0 0 0 0 1004
11 Coronel del Maule INIA 07-05-2026 02:30 7,3 87,5 0 0 0 0 1003
10 Coronel del Maule INIA 07-05-2026 02:15 8,1 83,4 0 0 0 0 1003
9 Coronel del Maule INIA 07-05-2026 02:00 8,6 80,8 0 0 0 0 1003
8 Coronel del Maule INIA 07-05-2026 01:45 9 79,1 0 0 0 0 1003
7 Coronel del Maule INIA 07-05-2026 01:30 9,2 76,1 0 0,2 234 0 1003
6 Coronel del Maule INIA 07-05-2026 01:15 8,6 79,8 0 0 0 0 1003
5 Coronel del Maule INIA 07-05-2026 01:00 9,7 77,2 0 0 206 0 1002
4 Coronel del Maule INIA 07-05-2026 00:45 10 71,2 0 1,5 235 0 1002
3 Coronel del Maule INIA 07-05-2026 00:30 10 71,4 0 2,9 244 0 1002
2 Coronel del Maule INIA 07-05-2026 00:15 10 71,6 0 2,5 244 0 1002
1 Coronel del Maule INIA 07-05-2026 00:00 10,3 71,4 0 2,1 239 0 1002